Time;durP1;ratioP1;P1;durP2;ratioP2;P2;SDS_P1;SDS_P2;PMS_P1;PMS_P2;Temp;Humidity;BMP_temperature;BMP_pressure;BME280_temperature;BME280_humidity;BME280_pressure;Samples;Min_cycle;Max_cycle;Signal;HPM_P1;HPM_P2
2022/08/28 00:02:32;;;;;;;16.50;6.25;;;;;;;13.70;79.16;101996.97;10298187;28;20043;-70
2022/08/28 00:07:33;;;;;;;16.92;5.85;;;;;;;13.71;79.79;102001.38;10298138;28;20027;-70
2022/08/28 00:12:35;;;;;;;11.25;4.65;;;;;;;13.65;79.02;102004.88;10297950;28;20038;-70
2022/08/28 00:17:35;;;;;;;11.10;3.53;;;;;;;13.60;79.81;102010.06;10279552;28;20089;-69
2022/08/28 00:22:37;;;;;;;11.27;3.80;;;;;;;13.55;79.47;102003.50;10297642;28;20368;-69
2022/08/28 00:27:52;;;;;;;10.25;4.05;;;;;;;13.53;79.60;102003.69;10296241;28;20454;-69
2022/08/28 00:32:54;;;;;;;12.85;4.03;;;;;;;13.47;79.67;102013.44;10298386;28;20085;-70
2022/08/28 00:37:56;;;;;;;5.57;3.78;;;;;;;13.45;79.95;102012.78;10279558;28;20525;-68
2022/08/28 00:42:56;;;;;;;12.20;4.20;;;;;;;13.50;80.25;102020.41;10296853;28;20193;-68
2022/08/28 00:47:57;;;;;;;5.63;3.42;;;;;;;13.49;79.83;102018.69;10296198;28;20027;-69
2022/08/28 00:52:58;;;;;;;18.17;4.55;;;;;;;13.43;80.26;102011.28;10278969;28;20046;-69
2022/08/28 00:57:59;;;;;;;8.95;5.20;;;;;;;13.38;80.78;102013.75;10296405;28;20031;-69
2022/08/28 01:03:00;;;;;;;9.07;3.95;;;;;;;13.44;80.48;102016.56;10296101;28;20042;-69
2022/08/28 01:08:00;;;;;;;16.65;3.90;;;;;;;13.38;80.95;102014.59;10278138;28;20035;-68
2022/08/28 01:13:01;;;;;;;12.60;4.32;;;;;;;13.32;80.80;102015.34;10277643;28;20118;-69
2022/08/28 01:18:04;;;;;;;9.88;3.92;;;;;;;13.36;81.42;102010.34;10294083;28;20109;-70
2022/08/28 01:23:14;;;;;;;12.40;4.53;;;;;;;13.30;81.26;102001.06;10293318;28;20038;-69
2022/08/28 01:28:14;;;;;;;6.72;4.05;;;;;;;13.37;81.68;102012.03;10278300;28;20070;-69
2022/08/28 01:33:14;;;;;;;7.57;3.88;;;;;;;13.42;82.24;102009.59;10293155;28;20062;-70
2022/08/28 01:38:15;;;;;;;18.60;3.90;;;;;;;13.44;81.85;102007.53;10293825;28;20085;-69
2022/08/28 01:43:21;;;;;;;12.75;4.75;;;;;;;13.37;81.97;102012.91;10293409;28;20037;-68
2022/08/28 01:48:22;;;;;;;7.72;4.85;;;;;;;13.37;82.57;102006.59;10293928;28;20536;-69
2022/08/28 01:53:24;;;;;;;10.48;4.07;;;;;;;13.33;82.39;102016.16;10293826;28;20052;-69
2022/08/28 01:58:25;;;;;;;11.45;5.00;;;;;;;13.30;82.32;102016.53;10277181;28;20486;-69
2022/08/28 02:03:25;;;;;;;7.32;4.35;;;;;;;13.29;82.21;102014.88;10292562;28;20034;-68
2022/08/28 02:08:26;;;;;;;5.25;3.60;;;;;;;13.26;82.03;102019.63;10293745;28;20118;-69
2022/08/28 02:13:26;;;;;;;10.90;5.18;;;;;;;13.24;82.27;102026.25;10294485;28;20030;-69
2022/08/28 02:18:26;;;;;;;10.73;4.30;;;;;;;13.19;82.41;102031.44;10294104;28;20355;-69
2022/08/28 02:23:27;;;;;;;7.32;3.58;;;;;;;13.14;83.03;102026.53;10293552;28;20042;-69
2022/08/28 02:28:28;;;;;;;3.90;3.15;;;;;;;13.14;82.90;102029.25;10294573;28;20086;-68
2022/08/28 02:33:28;;;;;;;11.65;3.75;;;;;;;13.13;83.49;102022.16;10293866;28;20562;-69
2022/08/28 02:38:28;;;;;;;10.48;4.82;;;;;;;13.29;83.57;102018.44;10300073;28;20057;-69
2022/08/28 02:43:29;;;;;;;11.27;5.15;;;;;;;13.49;83.47;102024.97;10284484;28;20043;-69
2022/08/28 02:48:31;;;;;;;5.88;3.72;;;;;;;13.53;83.48;102030.91;10301670;28;20042;-69
2022/08/28 02:53:31;;;;;;;13.45;3.58;;;;;;;13.47;83.94;102028.94;10299652;28;20395;-70
2022/08/28 02:58:32;;;;;;;4.75;2.95;;;;;;;13.37;83.45;102037.38;10300184;28;20066;-70
2022/08/28 03:03:32;;;;;;;8.00;3.70;;;;;;;13.27;83.55;102044.97;10299979;28;20470;-68
2022/08/28 03:08:32;;;;;;;5.00;3.67;;;;;;;13.21;83.65;102043.00;10298759;28;20375;-69
2022/08/28 03:13:33;;;;;;;8.30;4.28;;;;;;;13.16;83.99;102040.81;10299464;28;20035;-70
2022/08/28 03:18:34;;;;;;;6.93;3.53;;;;;;;13.18;84.88;102037.91;10299963;28;20352;-69
2022/08/28 03:23:34;;;;;;;7.88;3.85;;;;;;;13.22;85.03;102048.22;10301056;28;20030;-69
2022/08/28 03:28:56;;;;;;;9.23;3.67;;;;;;;13.22;84.45;102037.34;10297526;28;20042;-69
2022/08/28 03:33:57;;;;;;;5.03;3.25;;;;;;;13.20;84.43;102041.28;10299094;28;20121;-69
2022/08/28 03:38:58;;;;;;;6.07;3.33;;;;;;;13.21;85.23;102049.28;10297205;28;20145;-69
2022/08/28 03:43:59;;;;;;;6.28;4.03;;;;;;;13.18;84.97;102046.91;10298886;28;20035;-68
2022/08/28 03:49:01;;;;;;;7.97;4.03;;;;;;;13.25;84.88;102047.88;10297045;28;20034;-69
2022/08/28 03:54:01;;;;;;;5.35;4.00;;;;;;;13.30;85.52;102054.63;10281274;28;20035;-70
2022/08/28 03:59:03;;;;;;;8.73;2.90;;;;;;;13.29;84.93;102052.94;10297817;28;20035;-69
2022/08/28 04:04:03;;;;;;;7.32;3.10;;;;;;;13.25;85.75;102060.66;10280992;28;20038;-69
2022/08/28 04:09:04;;;;;;;13.45;3.97;;;;;;;13.30;85.31;102066.34;10296756;28;20061;-70
2022/08/28 04:14:04;;;;;;;7.53;2.28;;;;;;;13.31;85.55;102065.34;10297265;28;20035;-68
2022/08/28 04:19:04;;;;;;;7.47;2.55;;;;;;;13.33;85.56;102056.97;10298014;28;20031;-69
2022/08/28 04:24:05;;;;;;;3.00;1.92;;;;;;;13.41;86.40;102070.50;10296795;28;20416;-69
2022/08/28 04:29:06;;;;;;;4.13;2.65;;;;;;;13.51;86.73;102064.78;10296828;28;20109;-69
2022/08/28 04:34:07;;;;;;;21.92;4.60;;;;;;;13.66;86.45;102071.06;10295535;28;20058;-69
2022/08/28 04:39:09;;;;;;;5.43;3.63;;;;;;;13.86;86.99;102072.16;10296170;28;20059;-68
2022/08/28 04:44:10;;;;;;;17.33;3.70;;;;;;;14.04;87.39;102066.28;10296319;28;20038;-68
2022/08/28 04:49:10;;;;;;;11.52;3.22;;;;;;;14.12;86.91;102066.16;10297236;28;20039;-68
2022/08/28 04:54:11;;;;;;;5.00;3.05;;;;;;;14.21;87.18;102079.69;10295597;28;20067;-68
2022/08/28 04:59:12;;;;;;;12.95;3.08;;;;;;;14.28;86.90;102081.44;10294009;28;20085;-69
2022/08/28 05:04:12;;;;;;;16.80;3.10;;;;;;;14.32;86.99;102080.00;10295935;28;20030;-69
2022/08/28 05:09:14;;;;;;;16.45;4.07;;;;;;;14.34;87.01;102094.28;10295310;28;20034;-69
2022/08/28 05:14:15;;;;;;;9.45;2.53;;;;;;;14.35;87.46;102082.31;10295322;28;20110;-68
2022/08/28 05:19:16;;;;;;;7.05;2.38;;;;;;;14.45;87.75;102095.63;10293079;28;20039;-69
2022/08/28 05:24:17;;;;;;;17.67;2.88;;;;;;;14.55;88.43;102096.22;10295390;28;20030;-70
2022/08/28 05:29:17;;;;;;;3.42;2.00;;;;;;;14.75;88.69;102093.66;10292952;28;20463;-70
2022/08/28 05:34:18;;;;;;;11.80;2.45;;;;;;;14.95;89.56;102099.28;10294520;28;20058;-70
2022/08/28 05:39:18;;;;;;;4.03;2.25;;;;;;;15.22;91.24;102105.81;10294189;28;20059;-69
2022/08/28 05:44:19;;;;;;;4.75;2.30;;;;;;;15.43;89.89;102104.88;10293371;28;20121;-68
2022/08/28 05:49:20;;;;;;;4.20;1.90;;;;;;;15.72;89.79;102108.44;10295795;28;20045;-69
2022/08/28 05:54:21;;;;;;;6.30;3.38;;;;;;;15.96;89.68;102096.16;10292811;28;20050;-68
2022/08/28 05:59:23;;;;;;;4.80;2.55;;;;;;;16.04;88.82;102099.53;10292945;28;20467;-69
2022/08/28 06:04:25;;;;;;;9.52;2.50;;;;;;;16.93;88.20;102108.59;10292721;28;20046;-68
2022/08/28 06:09:27;;;;;;;7.20;2.42;;;;;;;17.93;86.70;102108.41;10296667;28;20042;-69
2022/08/28 06:14:28;;;;;;;6.47;2.65;;;;;;;18.77;84.29;102102.69;10285623;28;20486;-70
2022/08/28 06:19:30;;;;;;;3.35;2.63;;;;;;;19.29;82.24;102106.03;10300458;28;20038;-69
2022/08/28 06:24:30;;;;;;;3.85;2.35;;;;;;;19.67;77.41;102096.78;10300945;28;20030;-70
2022/08/28 06:29:31;;;;;;;7.95;3.10;;;;;;;20.19;77.43;102110.09;10302161;28;20121;-69
2022/08/28 06:34:31;;;;;;;2.70;2.25;;;;;;;20.74;75.75;102117.38;10302331;28;20038;-68
2022/08/28 06:39:31;;;;;;;11.20;2.67;;;;;;;21.11;72.69;102120.78;10301056;28;20048;-69
2022/08/28 06:44:32;;;;;;;4.20;2.90;;;;;;;21.22;70.61;102119.97;10301493;28;20451;-70
2022/08/28 06:49:33;;;;;;;2.25;1.90;;;;;;;21.67;69.87;102110.28;10300871;28;20042;-73
2022/08/28 06:54:33;;;;;;;2.58;2.13;;;;;;;22.32;67.71;102120.19;10300686;28;20034;-75
2022/08/28 06:59:34;;;;;;;5.28;2.03;;;;;;;22.73;67.96;102114.31;10299344;28;20039;-75
2022/08/28 07:04:34;;;;;;;14.70;2.95;;;;;;;23.24;65.12;102128.16;10300424;28;20050;-74
2022/08/28 07:09:35;;;;;;;6.35;2.38;;;;;;;23.39;62.66;102120.09;10300168;28;20103;-73
2022/08/28 07:14:36;;;;;;;4.38;2.10;;;;;;;23.32;58.44;102141.53;10300096;28;20471;-75
2022/08/28 07:19:37;;;;;;;3.30;2.05;;;;;;;23.71;58.78;102130.53;10297864;28;20058;-71
2022/08/28 07:24:37;;;;;;;5.22;1.92;;;;;;;23.68;57.27;102133.78;10299421;28;20045;-76
2022/08/28 07:29:38;;;;;;;4.97;1.75;;;;;;;24.20;57.82;102141.66;10298156;28;20478;-72
2022/08/28 07:34:39;;;;;;;4.47;1.80;;;;;;;24.46;53.49;102144.75;10299101;28;20497;-73
2022/08/28 07:39:40;;;;;;;8.85;1.90;;;;;;;24.20;51.16;102147.19;10299061;28;20059;-72
2022/08/28 07:44:49;;;;;;;4.75;1.88;;;;;;;24.16;50.96;102156.28;10297440;28;20070;-70
2022/08/28 07:49:52;;;;;;;2.22;1.85;;;;;;;24.28;51.04;102156.97;10298891;28;20327;-64
2022/08/28 07:54:53;;;;;;;2.38;1.40;;;;;;;24.46;52.48;102164.97;10297279;28;20090;-69
2022/08/28 07:59:53;;;;;;;4.30;1.67;;;;;;;24.45;49.22;102163.31;10297553;28;20109;-64
2022/08/28 08:04:54;;;;;;;5.47;1.80;;;;;;;24.53;48.15;102176.66;10295184;28;20078;-70
2022/08/28 08:09:54;;;;;;;3.53;2.25;;;;;;;24.89;50.43;102165.97;10295189;28;20084;-68
2022/08/28 08:14:55;;;;;;;7.03;2.92;;;;;;;24.93;48.46;102169.88;10297742;28;20034;-67
2022/08/28 08:19:55;;;;;;;5.10;1.95;;;;;;;24.92;48.57;102170.97;10280943;28;20047;-69
2022/08/28 08:24:55;;;;;;;6.13;1.75;;;;;;;25.56;48.56;102177.56;10295798;28;20117;-69
2022/08/28 08:29:56;;;;;;;3.40;2.70;;;;;;;25.72;46.97;102184.91;10297058;28;20042;-67
2022/08/28 08:34:56;;;;;;;2.55;1.48;;;;;;;25.63;45.72;102179.03;10295534;28;20157;-67
2022/08/28 08:39:57;;;;;;;5.15;2.17;;;;;;;25.31;46.45;102170.78;10296133;28;20085;-67
2022/08/28 08:44:58;;;;;;;3.38;1.95;;;;;;;25.95;45.35;102178.13;10295042;28;20476;-66
2022/08/28 08:50:05;;;;;;;8.77;2.15;;;;;;;26.96;47.08;102171.19;10294460;28;20039;-68
2022/08/28 08:55:22;;;;;;;2.15;1.80;;;;;;;27.28;43.49;102175.66;10280131;28;20437;-64
2022/08/28 09:00:22;;;;;;;13.27;2.53;;;;;;;27.62;44.48;102169.50;10293959;28;20037;-65
2022/08/28 09:05:39;;;;;;;6.90;1.42;;;;;;;26.00;47.47;102175.38;10295171;28;20035;-64
2022/08/28 09:10:41;;;;;;;3.28;1.55;;;;;;;24.85;48.52;102169.50;10278617;28;20118;-63
2022/08/28 09:15:44;;;;;;;3.22;2.10;;;;;;;23.96;49.67;102178.97;10279238;28;20078;-64
2022/08/28 09:20:48;;;;;;;2.13;1.77;;;;;;;23.20;49.07;102182.28;10277741;28;20037;-69
2022/08/28 09:25:57;;;;;;;2.65;1.90;;;;;;;22.57;52.04;102183.31;10293783;28;20038;-69
2022/08/28 09:31:03;;;;;;;3.13;2.35;;;;;;;24.55;48.97;102168.94;10294434;28;20043;-68
2022/08/28 09:36:22;;;;;;;;;;;;;;;26.07;45.75;102159.31;10278159;28;20054;-67
2022/08/28 09:46:45;;;;;;;8.30;2.88;;;;;;;26.98;41.30;102149.50;10292237;28;20094;-68
2022/08/28 09:51:46;;;;;;;7.35;2.17;;;;;;;25.60;43.16;102165.69;10276619;28;20026;-66
2022/08/28 09:56:47;;;;;;;2.15;1.67;;;;;;;23.93;45.75;102160.13;10292410;28;20038;-67
2022/08/28 10:02:09;;;;;;;10.70;2.00;;;;;;;24.46;48.14;102158.59;10291614;28;20035;-66
2022/08/28 10:07:37;;;;;;;1.42;1.30;;;;;;;26.95;44.21;102146.47;10293548;28;20039;-67
2022/08/28 10:12:58;;;;;;;3.67;1.83;;;;;;;26.45;41.76;102151.63;10293454;28;20455;-66
2022/08/28 10:18:43;;;;;;;1.90;1.80;;;;;;;27.08;41.99;102155.06;10293506;28;20037;-67
2022/08/28 10:23:55;;;;;;;2.75;1.55;;;;;;;26.10;42.10;102163.47;10282827;28;20054;-67
2022/08/28 10:29:08;;;;;;;1.55;1.45;;;;;;;25.35;43.46;102157.22;10293862;28;20451;-65
2022/08/28 10:34:50;;;;;;;4.32;1.85;;;;;;;25.67;45.58;102162.69;10294574;28;20030;-67
2022/08/28 10:39:54;;;;;;;7.28;3.03;;;;;;;26.35;43.32;102138.56;10293268;28;20055;-67
2022/08/28 10:44:57;;;;;;;3.58;1.85;;;;;;;24.63;43.97;102156.53;10291655;28;20038;-67
2022/08/28 10:50:01;;;;;;;6.50;2.22;;;;;;;23.88;46.82;102167.28;10275248;28;20152;-65
2022/08/28 10:55:10;;;;;;;3.15;2.45;;;;;;;23.36;48.20;102169.53;10293658;28;20066;-66
2022/08/28 11:00:13;;;;;;;2.30;1.85;;;;;;;23.30;48.72;102173.31;10284064;28;20061;-66
2022/08/28 11:05:15;;;;;;;7.68;2.63;;;;;;;25.18;47.28;102168.47;10300856;28;20390;-64
2022/08/28 11:10:40;;;;;;;1.38;1.27;;;;;;;25.75;45.45;102168.56;10298644;28;20100;-64
2022/08/28 11:15:48;;;;;;;3.70;1.13;;;;;;;25.29;45.45;102173.78;10279981;28;20398;-70
2022/08/28 11:21:22;;;;;;;4.78;2.33;;;;;;;26.05;41.99;102167.06;10300179;28;20447;-70
2022/08/28 11:26:37;;;;;;;1.80;1.52;;;;;;;26.79;42.38;102163.13;10291804;28;20038;-69
2022/08/28 11:31:39;;;;;;;1.45;1.35;;;;;;;27.26;41.92;102152.88;10300795;28;20037;-70
2022/08/28 11:36:42;;;;;;;3.30;1.95;;;;;;;25.48;44.81;102163.13;10284347;28;20050;-69
2022/08/28 11:42:10;;;;;;;7.82;1.83;;;;;;;24.45;45.35;102159.69;10299331;28;20043;-70
2022/08/28 11:47:35;;;;;;;3.53;2.17;;;;;;;24.11;45.36;102168.94;10298453;28;20060;-68
2022/08/28 11:53:02;;;;;;;1.70;1.60;;;;;;;23.34;47.69;102167.00;10298766;28;20382;-72
2022/08/28 11:58:18;;;;;;;1.85;1.75;;;;;;;23.33;48.22;102172.81;10283546;28;20034;-73
2022/08/28 12:03:34;;;;;;;2.28;1.15;;;;;;;26.26;45.65;102164.34;10266965;28;20043;-71
2022/08/28 12:08:43;;;;;;;3.10;2.20;;;;;;;25.26;47.31;102171.56;10299111;28;20042;-71
2022/08/28 12:13:45;;;;;;;7.15;2.08;;;;;;;24.25;47.56;102176.84;10298069;28;20463;-71
2022/08/28 12:18:46;;;;;;;2.05;1.45;;;;;;;23.75;49.00;102175.13;10296201;28;20046;-73
2022/08/28 12:24:11;;;;;;;9.05;2.47;;;;;;;26.77;46.19;102161.72;10298108;28;20206;-65
2022/08/28 12:29:31;;;;;;;2.92;1.85;;;;;;;25.11;45.50;102152.03;10295723;28;20061;-65
2022/08/28 12:34:45;;;;;;;2.63;2.05;;;;;;;24.58;46.41;102164.81;10297311;28;20038;-66
2022/08/28 12:39:45;;;;;;;2.05;1.60;;;;;;;27.00;44.38;102169.53;10295837;28;20043;-66
2022/08/28 12:44:45;;;;;;;5.80;1.88;;;;;;;25.78;47.98;102160.78;10295514;28;20058;-64
2022/08/28 12:49:46;;;;;;;3.15;1.25;;;;;;;24.43;49.09;102162.72;10295328;28;20049;-65
2022/08/28 12:54:47;;;;;;;1.60;1.50;;;;;;;25.96;47.53;102154.81;10295154;28;20062;-66
2022/08/28 12:59:49;;;;;;;2.83;1.70;;;;;;;27.70;43.22;102141.94;10294578;28;20467;-65
2022/08/28 13:05:07;;;;;;;2.53;1.77;;;;;;;27.40;44.95;102147.56;10294123;28;20034;-66
2022/08/28 13:10:19;;;;;;;2.03;1.85;;;;;;;25.32;45.51;102130.84;10294393;28;20463;-66
2022/08/28 13:15:46;;;;;;;2.20;1.50;;;;;;;24.54;47.53;102147.06;10293490;28;20035;-69
2022/08/28 13:20:46;;;;;;;3.25;1.08;;;;;;;23.90;47.30;102151.28;10294938;28;20041;-69
2022/08/28 13:25:47;;;;;;;2.28;1.25;;;;;;;23.04;47.91;102164.59;10293555;28;20031;-70
2022/08/28 13:30:58;;;;;;;2.17;1.70;;;;;;;23.65;46.92;102145.34;10277266;28;20414;-71
2022/08/28 13:36:18;;;;;;;1.55;1.27;;;;;;;24.55;46.39;102148.72;10278666;28;20094;-70
2022/08/28 13:41:18;;;;;;;2.00;1.48;;;;;;;24.01;47.46;102149.47;10293612;28;20034;-68
2022/08/28 13:46:19;;;;;;;1.65;1.50;;;;;;;23.60;48.40;102150.81;10293967;28;20117;-68
2022/08/28 13:51:19;;;;;;;1.38;1.30;;;;;;;23.60;49.43;102148.03;10294502;28;20404;-69
2022/08/28 13:56:20;;;;;;;2.50;1.58;;;;;;;25.57;48.28;102134.88;10276859;28;20026;-70
2022/08/28 14:01:21;;;;;;;3.78;1.73;;;;;;;25.46;47.51;102132.06;10294509;28;20057;-69
2022/08/28 14:06:22;;;;;;;4.07;2.15;;;;;;;25.80;47.47;102126.13;10294087;28;20045;-69
2022/08/28 14:11:25;;;;;;;1.55;1.45;;;;;;;24.77;47.93;102132.88;10293359;28;20062;-69
2022/08/28 14:16:25;;;;;;;2.20;1.33;;;;;;;23.68;47.87;102128.25;10293898;28;20033;-71
2022/08/28 14:21:25;;;;;;;6.90;1.35;;;;;;;23.49;48.87;102129.66;10293668;28;20034;-74
2022/08/28 14:26:26;;;;;;;1.92;1.83;;;;;;;24.70;47.92;102123.94;10235425;28;20459;-68
2022/08/28 14:31:27;;;;;;;15.55;2.17;;;;;;;25.33;47.52;102109.50;10280123;28;20146;-68
2022/08/28 14:36:28;;;;;;;1.98;1.67;;;;;;;25.74;45.19;102138.28;10300353;28;20113;-68
2022/08/28 14:41:29;;;;;;;5.45;1.63;;;;;;;25.14;45.77;102140.41;10301849;28;20126;-68
2022/08/28 14:46:32;;;;;;;4.10;1.90;;;;;;;24.24;47.80;102131.75;10300303;28;20125;-67
2022/08/28 14:51:33;;;;;;;2.38;1.35;;;;;;;25.04;48.27;102123.66;10301788;28;20512;-69
2022/08/28 14:56:34;;;;;;;2.67;1.67;;;;;;;24.74;48.31;102130.63;10300835;28;20109;-69
2022/08/28 15:01:36;;;;;;;2.70;1.60;;;;;;;24.15;47.33;102116.69;10298967;28;20370;-69
2022/08/28 15:06:37;;;;;;;6.43;1.85;;;;;;;23.83;48.92;102131.22;10298546;28;20035;-68
2022/08/28 15:11:38;;;;;;;1.45;1.35;;;;;;;23.47;48.77;102129.06;10298470;28;20101;-69
2022/08/28 15:16:41;;;;;;;1.75;1.20;;;;;;;22.80;48.75;102139.00;10298800;28;20356;-70
2022/08/28 15:21:46;;;;;;;1.58;1.40;;;;;;;22.36;48.93;102124.09;10299399;28;20041;-69
2022/08/28 15:26:47;;;;;;;2.17;1.97;;;;;;;22.10;50.52;102125.50;10298137;28;20102;-70
2022/08/28 15:31:48;;;;;;;3.65;2.35;;;;;;;22.47;51.12;102126.00;10298733;28;20115;-69
2022/08/28 15:36:49;;;;;;;2.50;1.67;;;;;;;22.46;51.66;102122.41;10282212;28;20073;-70
2022/08/28 15:41:49;;;;;;;1.50;1.45;;;;;;;22.49;51.52;102126.56;10281463;28;20417;-67
2022/08/28 15:46:57;;;;;;;4.22;2.17;;;;;;;22.33;52.42;102117.16;10299689;28;20086;-69
2022/08/28 15:51:58;;;;;;;1.73;1.63;;;;;;;22.00;53.41;102117.84;10298926;28;20097;-68
2022/08/28 15:56:58;;;;;;;2.20;1.73;;;;;;;21.81;52.95;102125.47;10298364;28;20094;-69
2022/08/28 16:01:59;;;;;;;1.70;1.60;;;;;;;21.76;53.08;102119.81;10298596;28;20358;-69
2022/08/28 16:06:59;;;;;;;6.07;2.08;;;;;;;21.62;54.72;102123.94;10299479;28;20045;-70
2022/08/28 16:12:00;;;;;;;6.05;1.77;;;;;;;21.48;54.22;102123.34;10298522;28;20045;-68
2022/08/28 16:17:01;;;;;;;1.45;1.35;;;;;;;21.00;55.74;102111.44;10296474;28;20125;-71
2022/08/28 16:22:01;;;;;;;2.30;1.20;;;;;;;20.79;57.19;102126.59;10298634;28;20078;-69
2022/08/28 16:27:01;;;;;;;5.38;1.80;;;;;;;20.58;57.34;102124.38;10298091;28;20042;-70
2022/08/28 16:32:03;;;;;;;7.22;1.88;;;;;;;20.51;59.72;102127.25;10297645;28;20367;-69
2022/08/28 16:37:03;;;;;;;1.48;1.38;;;;;;;20.57;57.59;102126.31;10295745;28;20055;-68
2022/08/28 16:42:03;;;;;;;1.70;1.45;;;;;;;20.51;59.85;102138.25;10297175;28;20027;-68
2022/08/28 16:47:04;;;;;;;1.17;1.17;;;;;;;20.77;59.44;102133.41;10295994;28;20147;-70
2022/08/28 16:52:04;;;;;;;3.45;2.13;;;;;;;20.83;58.11;102135.22;10296040;28;20022;-71
2022/08/28 16:57:05;;;;;;;5.63;1.63;;;;;;;20.69;59.02;102136.53;10294248;28;20118;-70
2022/08/28 17:02:05;;;;;;;5.35;2.60;;;;;;;20.61;58.17;102133.03;10295366;28;20026;-69
2022/08/28 17:07:06;;;;;;;1.23;1.20;;;;;;;20.42;57.84;102121.22;10296715;28;20034;-69
2022/08/28 17:12:06;;;;;;;2.10;1.42;;;;;;;20.24;59.71;102123.16;10295597;28;20118;-70
2022/08/28 17:17:06;;;;;;;1.95;1.80;;;;;;;19.90;60.34;102129.06;10295230;28;20037;-69
2022/08/28 17:27:26;;;;;;;3.03;2.33;;;;;;;19.45;61.90;102134.00;10294170;28;20035;-70
2022/08/28 17:32:26;;;;;;;1.00;1.00;;;;;;;19.27;62.49;102132.03;10293998;28;20034;-69
2022/08/28 17:37:27;;;;;;;4.47;1.85;;;;;;;19.07;63.72;102134.97;10293960;28;20392;-70
2022/08/28 17:42:27;;;;;;;3.95;1.75;;;;;;;18.97;64.52;102132.72;10293597;28;20066;-70
2022/08/28 17:47:28;;;;;;;3.58;1.83;;;;;;;18.85;64.16;102119.94;10293846;28;20046;-70
2022/08/28 17:52:28;;;;;;;8.70;2.95;;;;;;;18.75;67.37;102129.50;10276936;28;20078;-70
2022/08/28 17:57:29;;;;;;;3.67;1.88;;;;;;;18.62;67.06;102124.09;10294073;28;20038;-71
2022/08/28 18:02:29;;;;;;;2.42;1.90;;;;;;;18.63;67.31;102128.50;10293506;28;20028;-71
2022/08/28 18:07:30;;;;;;;7.25;1.45;;;;;;;18.63;65.59;102130.41;10276652;28;20134;-70
2022/08/28 18:12:30;;;;;;;6.35;1.60;;;;;;;18.51;65.89;102133.03;10293039;28;20130;-69
2022/08/28 18:17:31;;;;;;;1.98;0.98;;;;;;;18.41;67.60;102140.88;10293388;28;20114;-69
2022/08/28 18:22:31;;;;;;;1.85;1.30;;;;;;;18.36;66.10;102139.66;10293935;28;20034;-71
2022/08/28 18:27:33;;;;;;;3.20;2.13;;;;;;;18.23;69.39;102152.59;10292496;28;20034;-69
2022/08/28 18:32:33;;;;;;;2.60;1.80;;;;;;;18.18;67.63;102138.69;10294032;28;20085;-69
2022/08/28 18:37:33;;;;;;;4.05;2.75;;;;;;;18.11;66.67;102138.72;10292547;28;20380;-69
2022/08/28 18:42:37;;;;;;;2.08;1.23;;;;;;;18.10;68.02;102148.00;10292093;28;20027;-71
2022/08/28 18:47:37;;;;;;;4.90;1.45;;;;;;;18.09;67.40;102149.91;10293879;28;20027;-70
2022/08/28 18:52:38;;;;;;;1.88;1.73;;;;;;;17.97;69.12;102148.06;10292236;28;20104;-70
2022/08/28 18:57:39;;;;;;;3.03;1.63;;;;;;;17.85;69.56;102147.88;10293129;28;20027;-69
2022/08/28 19:02:39;;;;;;;3.05;1.45;;;;;;;17.76;71.93;102151.88;10293053;28;20038;-69
2022/08/28 19:07:40;;;;;;;6.97;2.08;;;;;;;17.75;69.44;102159.25;10292253;28;20031;-69
2022/08/28 19:12:40;;;;;;;2.83;1.48;;;;;;;17.69;68.91;102165.59;10293576;28;20122;-70
2022/08/28 19:17:41;;;;;;;4.40;1.65;;;;;;;17.65;67.99;102178.03;10294553;28;20045;-70
2022/08/28 19:22:41;;;;;;;3.20;1.48;;;;;;;17.64;70.22;102181.81;10299800;28;20077;-71
2022/08/28 19:27:42;;;;;;;2.75;1.85;;;;;;;17.65;69.52;102184.34;10299862;28;20077;-70
2022/08/28 19:32:43;;;;;;;3.83;1.73;;;;;;;17.63;68.95;102180.97;10299752;28;20027;-70
2022/08/28 19:37:43;;;;;;;3.08;2.30;;;;;;;17.61;69.06;102190.47;10300119;28;20051;-70
2022/08/28 19:42:44;;;;;;;2.25;1.40;;;;;;;17.61;69.25;102191.31;10266471;28;20169;-70
2022/08/28 19:47:45;;;;;;;1.40;1.30;;;;;;;17.56;70.34;102195.75;10298720;28;20038;-71
2022/08/28 19:52:46;;;;;;;2.65;1.75;;;;;;;17.54;69.18;102193.22;10300053;28;20035;-70
2022/08/28 19:57:47;;;;;;;1.30;1.17;;;;;;;17.48;68.57;102201.44;10299171;28;20030;-70
2022/08/28 20:02:48;;;;;;;2.38;2.15;;;;;;;17.43;68.46;102207.56;10298666;28;20046;-71
2022/08/28 20:07:48;;;;;;;4.07;2.15;;;;;;;17.40;69.68;102205.25;10296765;28;20117;-71
2022/08/28 20:12:49;;;;;;;2.55;1.67;;;;;;;17.33;69.08;102205.25;10298084;28;20031;-70
2022/08/28 20:17:49;;;;;;;5.18;1.50;;;;;;;17.23;68.87;102210.31;10280733;28;20414;-71
2022/08/28 20:22:50;;;;;;;2.35;1.77;;;;;;;17.14;69.15;102208.81;10297578;28;20027;-71
2022/08/28 20:27:50;;;;;;;4.60;1.50;;;;;;;17.02;69.59;102211.31;10296467;28;20050;-71
2022/08/28 20:32:50;;;;;;;1.38;1.25;;;;;;;16.94;69.77;102220.59;10297305;28;20173;-70
2022/08/28 20:37:51;;;;;;;1.90;1.80;;;;;;;16.89;70.42;102223.09;10297959;28;20066;-73
2022/08/28 20:42:51;;;;;;;2.20;1.98;;;;;;;16.84;71.20;102220.13;10296536;28;20042;-72
2022/08/28 20:47:52;;;;;;;1.70;1.60;;;;;;;16.81;73.94;102233.38;10298264;28;20062;-72
2022/08/28 20:52:52;;;;;;;5.80;1.95;;;;;;;16.75;72.48;102226.81;10296607;28;20382;-71
2022/08/28 20:57:52;;;;;;;8.70;3.08;;;;;;;16.67;73.41;102235.19;10297244;28;20112;-71
2022/08/28 21:02:53;;;;;;;4.35;1.92;;;;;;;16.59;74.86;102228.03;10296033;28;20034;-71
2022/08/28 21:07:53;;;;;;;5.15;2.00;;;;;;;16.49;76.96;102242.06;10296299;28;20042;-71
2022/08/28 21:12:53;;;;;;;3.83;2.33;;;;;;;16.41;75.75;102236.78;10296883;28;20037;-71
2022/08/28 21:17:54;;;;;;;3.03;2.13;;;;;;;16.31;78.71;102224.56;10296147;28;20469;-71
2022/08/28 21:22:54;;;;;;;2.42;2.03;;;;;;;16.22;80.05;102219.25;10278697;28;20035;-70
2022/08/28 21:27:55;;;;;;;2.53;2.20;;;;;;;16.10;81.70;102231.78;10296316;28;20038;-71
2022/08/28 21:32:55;;;;;;;2.80;2.17;;;;;;;16.01;82.16;102239.28;10295184;28;20042;-71
2022/08/28 21:37:56;;;;;;;4.25;2.45;;;;;;;15.92;82.67;102243.25;10295024;28;20066;-71
2022/08/28 21:42:56;;;;;;;7.95;2.33;;;;;;;15.84;79.71;102251.59;10293594;28;20090;-71
2022/08/28 21:47:56;;;;;;;3.45;2.28;;;;;;;15.76;83.59;102251.72;10295407;28;20097;-71
2022/08/28 21:52:57;;;;;;;2.60;2.35;;;;;;;15.71;81.87;102246.88;10295170;28;20038;-71
2022/08/28 21:57:57;;;;;;;3.47;1.90;;;;;;;15.67;83.33;102255.69;10294389;28;20455;-70
2022/08/28 22:02:57;;;;;;;2.17;2.05;;;;;;;15.64;82.78;102256.03;10292600;28;20038;-71
2022/08/28 22:07:58;;;;;;;6.22;2.63;;;;;;;15.59;83.37;102254.72;10293618;28;20439;-70
2022/08/28 22:12:58;;;;;;;5.10;2.10;;;;;;;15.54;87.16;102257.22;10292997;28;20178;-70
2022/08/28 22:17:59;;;;;;;8.77;1.75;;;;;;;15.53;86.43;102262.88;10293921;28;20466;-71
2022/08/28 22:23:08;;;;;;;4.97;1.92;;;;;;;15.45;85.53;102258.41;10293544;28;20026;-70
2022/08/28 22:28:09;;;;;;;5.70;2.58;;;;;;;15.39;84.57;102272.84;10294474;28;20060;-70
2022/08/28 22:33:09;;;;;;;5.90;1.75;;;;;;;15.37;83.76;102274.06;10293109;28;20037;-70
2022/08/28 22:38:10;;;;;;;6.32;2.50;;;;;;;15.30;85.17;102265.81;10293134;28;20043;-70
2022/08/28 22:43:11;;;;;;;4.00;2.97;;;;;;;15.24;84.22;102252.94;10293987;28;20054;-70
2022/08/28 22:48:13;;;;;;;3.60;3.00;;;;;;;15.25;85.21;102268.28;10276255;28;20379;-70
2022/08/28 22:53:14;;;;;;;2.97;2.13;;;;;;;15.17;83.48;102257.50;10296948;28;20042;-70
2022/08/28 22:58:14;;;;;;;3.40;2.55;;;;;;;15.13;82.88;102265.25;10284028;28;20461;-70
2022/08/28 23:03:15;;;;;;;5.35;2.08;;;;;;;15.05;81.86;102260.75;10282791;28;20046;-70
2022/08/28 23:08:15;;;;;;;4.13;2.80;;;;;;;15.02;82.36;102263.84;10301256;28;20097;-71
2022/08/28 23:13:16;;;;;;;2.70;1.88;;;;;;;15.01;82.25;102259.44;10299164;28;20117;-70
2022/08/28 23:18:16;;;;;;;5.28;3.20;;;;;;;15.03;82.12;102251.09;10299129;28;20035;-70
2022/08/28 23:23:17;;;;;;;5.68;2.30;;;;;;;15.07;82.37;102255.94;10298358;28;20031;-70